sensor_id;sensor_type;location;lat;lon;timestamp;temperature;humidity
65404;DHT22;52014;52.088;5.096;2023-06-04T00:01:30;15.70;99.90
65404;DHT22;52014;52.088;5.096;2023-06-04T00:03:56;15.60;99.90
65404;DHT22;52014;52.088;5.096;2023-06-04T00:06:21;15.60;99.90
65404;DHT22;52014;52.088;5.096;2023-06-04T00:08:46;15.60;99.90
65404;DHT22;52014;52.088;5.096;2023-06-04T00:11:12;15.60;99.90
65404;DHT22;52014;52.088;5.096;2023-06-04T00:13:37;15.60;99.90
65404;DHT22;52014;52.088;5.096;2023-06-04T00:16:03;15.50;99.90
65404;DHT22;52014;52.088;5.096;2023-06-04T00:18:29;15.50;99.90
65404;DHT22;52014;52.088;5.096;2023-06-04T00:20:55;15.50;99.90
65404;DHT22;52014;52.088;5.096;2023-06-04T00:23:20;15.50;99.90
65404;DHT22;52014;52.088;5.096;2023-06-04T00:25:46;15.40;99.90
65404;DHT22;52014;52.088;5.096;2023-06-04T00:28:11;15.40;99.90
65404;DHT22;52014;52.088;5.096;2023-06-04T00:30:36;15.40;99.90
65404;DHT22;52014;52.088;5.096;2023-06-04T00:33:03;15.40;99.90
65404;DHT22;52014;52.088;5.096;2023-06-04T00:35:28;15.40;99.90
65404;DHT22;52014;52.088;5.096;2023-06-04T00:37:54;15.30;99.90
65404;DHT22;52014;52.088;5.096;2023-06-04T00:40:19;15.30;99.90
65404;DHT22;52014;52.088;5.096;2023-06-04T00:42:44;15.30;99.90
65404;DHT22;52014;52.088;5.096;2023-06-04T00:45:10;15.30;99.90
65404;DHT22;52014;52.088;5.096;2023-06-04T00:47:36;15.30;99.90
65404;DHT22;52014;52.088;5.096;2023-06-04T00:50:01;15.20;99.90
65404;DHT22;52014;52.088;5.096;2023-06-04T00:52:27;15.20;99.90
65404;DHT22;52014;52.088;5.096;2023-06-04T00:54:53;15.10;99.90
65404;DHT22;52014;52.088;5.096;2023-06-04T00:57:22;15.10;99.90
65404;DHT22;52014;52.088;5.096;2023-06-04T00:59:48;15.10;99.90
65404;DHT22;52014;52.088;5.096;2023-06-04T01:02:23;15.10;99.90
65404;DHT22;52014;52.088;5.096;2023-06-04T01:05:02;15.10;99.90
65404;DHT22;52014;52.088;5.096;2023-06-04T01:07:28;15.00;99.90
65404;DHT22;52014;52.088;5.096;2023-06-04T01:09:55;15.00;99.90
65404;DHT22;52014;52.088;5.096;2023-06-04T01:12:21;14.90;99.90
65404;DHT22;52014;52.088;5.096;2023-06-04T01:14:46;14.90;99.90
65404;DHT22;52014;52.088;5.096;2023-06-04T01:25:31;14.90;99.90
65404;DHT22;52014;52.088;5.096;2023-06-04T01:27:57;14.90;99.90
65404;DHT22;52014;52.088;5.096;2023-06-04T01:30:26;14.90;99.90
65404;DHT22;52014;52.088;5.096;2023-06-04T01:32:53;14.90;99.90
65404;DHT22;52014;52.088;5.096;2023-06-04T01:35:19;14.80;99.90
65404;DHT22;52014;52.088;5.096;2023-06-04T01:37:45;14.80;99.90
65404;DHT22;52014;52.088;5.096;2023-06-04T01:40:11;14.70;99.90
65404;DHT22;52014;52.088;5.096;2023-06-04T01:42:37;14.70;99.90
65404;DHT22;52014;52.088;5.096;2023-06-04T01:45:02;14.70;99.90
65404;DHT22;52014;52.088;5.096;2023-06-04T01:47:28;14.60;99.90
65404;DHT22;52014;52.088;5.096;2023-06-04T01:49:53;14.60;99.90
65404;DHT22;52014;52.088;5.096;2023-06-04T01:52:19;14.60;99.90
65404;DHT22;52014;52.088;5.096;2023-06-04T01:54:46;14.60;99.90
65404;DHT22;52014;52.088;5.096;2023-06-04T01:57:13;14.60;99.90
65404;DHT22;52014;52.088;5.096;2023-06-04T01:59:39;14.60;99.90
65404;DHT22;52014;52.088;5.096;2023-06-04T02:02:07;14.50;99.90
65404;DHT22;52014;52.088;5.096;2023-06-04T02:04:32;14.50;99.90
65404;DHT22;52014;52.088;5.096;2023-06-04T02:06:59;14.50;99.90
65404;DHT22;52014;52.088;5.096;2023-06-04T02:09:25;14.50;99.90
65404;DHT22;52014;52.088;5.096;2023-06-04T02:11:51;14.40;99.90
65404;DHT22;52014;52.088;5.096;2023-06-04T02:14:16;14.40;99.90
65404;DHT22;52014;52.088;5.096;2023-06-04T02:16:42;14.30;99.90
65404;DHT22;52014;52.088;5.096;2023-06-04T02:19:07;14.30;99.90
65404;DHT22;52014;52.088;5.096;2023-06-04T02:21:33;14.30;99.90
65404;DHT22;52014;52.088;5.096;2023-06-04T02:23:58;14.30;99.90
65404;DHT22;52014;52.088;5.096;2023-06-04T02:26:23;14.20;99.90
65404;DHT22;52014;52.088;5.096;2023-06-04T02:28:50;14.20;99.90
65404;DHT22;52014;52.088;5.096;2023-06-04T02:31:15;14.20;99.90
65404;DHT22;52014;52.088;5.096;2023-06-04T02:33:41;14.20;99.90
65404;DHT22;52014;52.088;5.096;2023-06-04T02:36:06;14.10;99.90
65404;DHT22;52014;52.088;5.096;2023-06-04T02:38:34;14.10;99.90
65404;DHT22;52014;52.088;5.096;2023-06-04T02:41:00;14.10;99.90
65404;DHT22;52014;52.088;5.096;2023-06-04T02:43:25;14.10;99.90
65404;DHT22;52014;52.088;5.096;2023-06-04T02:45:51;14.10;99.90
65404;DHT22;52014;52.088;5.096;2023-06-04T02:48:16;14.10;99.90
65404;DHT22;52014;52.088;5.096;2023-06-04T02:50:41;14.00;99.90
65404;DHT22;52014;52.088;5.096;2023-06-04T02:53:07;14.00;99.90
65404;DHT22;52014;52.088;5.096;2023-06-04T02:55:33;14.00;99.90
65404;DHT22;52014;52.088;5.096;2023-06-04T02:57:59;14.00;99.90
65404;DHT22;52014;52.088;5.096;2023-06-04T03:00:25;14.00;99.90
65404;DHT22;52014;52.088;5.096;2023-06-04T03:02:51;13.90;99.90
65404;DHT22;52014;52.088;5.096;2023-06-04T03:05:17;13.90;99.90
65404;DHT22;52014;52.088;5.096;2023-06-04T03:07:43;13.90;99.90
65404;DHT22;52014;52.088;5.096;2023-06-04T03:10:10;13.90;99.90
65404;DHT22;52014;52.088;5.096;2023-06-04T03:12:36;13.80;99.90
65404;DHT22;52014;52.088;5.096;2023-06-04T03:15:02;13.80;99.90
65404;DHT22;52014;52.088;5.096;2023-06-04T03:17:27;13.80;99.90
65404;DHT22;52014;52.088;5.096;2023-06-04T03:19:53;13.80;99.90
65404;DHT22;52014;52.088;5.096;2023-06-04T03:22:18;13.80;99.90
65404;DHT22;52014;52.088;5.096;2023-06-04T03:24:44;13.70;99.90
65404;DHT22;52014;52.088;5.096;2023-06-04T03:27:09;13.70;99.90
65404;DHT22;52014;52.088;5.096;2023-06-04T03:29:35;13.70;99.90
65404;DHT22;52014;52.088;5.096;2023-06-04T03:32:01;13.70;99.90
65404;DHT22;52014;52.088;5.096;2023-06-04T03:34:27;13.70;99.90
65404;DHT22;52014;52.088;5.096;2023-06-04T03:36:53;13.70;99.90
65404;DHT22;52014;52.088;5.096;2023-06-04T03:39:19;13.60;99.90
65404;DHT22;52014;52.088;5.096;2023-06-04T03:41:44;13.60;99.90
65404;DHT22;52014;52.088;5.096;2023-06-04T03:44:12;13.60;99.90
65404;DHT22;52014;52.088;5.096;2023-06-04T03:46:37;13.70;99.90
65404;DHT22;52014;52.088;5.096;2023-06-04T03:49:03;13.70;99.90
65404;DHT22;52014;52.088;5.096;2023-06-04T03:51:28;13.60;99.90
65404;DHT22;52014;52.088;5.096;2023-06-04T03:53:54;13.60;99.90
65404;DHT22;52014;52.088;5.096;2023-06-04T03:56:20;13.60;99.90
65404;DHT22;52014;52.088;5.096;2023-06-04T03:58:46;13.60;99.90
65404;DHT22;52014;52.088;5.096;2023-06-04T04:01:12;13.60;99.90
65404;DHT22;52014;52.088;5.096;2023-06-04T04:03:37;13.70;99.90
65404;DHT22;52014;52.088;5.096;2023-06-04T04:06:03;13.60;99.90
65404;DHT22;52014;52.088;5.096;2023-06-04T04:08:28;13.60;99.90
65404;DHT22;52014;52.088;5.096;2023-06-04T04:10:57;13.60;99.90
65404;DHT22;52014;52.088;5.096;2023-06-04T04:13:22;13.60;99.90
65404;DHT22;52014;52.088;5.096;2023-06-04T04:15:47;13.70;99.90
65404;DHT22;52014;52.088;5.096;2023-06-04T04:18:18;13.70;99.90
65404;DHT22;52014;52.088;5.096;2023-06-04T04:20:45;13.60;99.90
65404;DHT22;52014;52.088;5.096;2023-06-04T04:23:11;13.60;99.90
65404;DHT22;52014;52.088;5.096;2023-06-04T04:25:36;13.70;99.90
65404;DHT22;52014;52.088;5.096;2023-06-04T04:28:03;13.70;99.90
65404;DHT22;52014;52.088;5.096;2023-06-04T04:30:32;13.70;99.90
65404;DHT22;52014;52.088;5.096;2023-06-04T04:33:00;13.70;99.90
65404;DHT22;52014;52.088;5.096;2023-06-04T04:35:25;13.70;99.90
65404;DHT22;52014;52.088;5.096;2023-06-04T04:37:51;13.70;99.90
65404;DHT22;52014;52.088;5.096;2023-06-04T04:40:16;13.80;99.90
65404;DHT22;52014;52.088;5.096;2023-06-04T04:42:42;13.80;99.90
65404;DHT22;52014;52.088;5.096;2023-06-04T04:45:07;13.90;99.90
65404;DHT22;52014;52.088;5.096;2023-06-04T04:47:33;13.90;99.90
65404;DHT22;52014;52.088;5.096;2023-06-04T04:49:58;13.90;99.90
65404;DHT22;52014;52.088;5.096;2023-06-04T04:52:24;13.90;99.90
65404;DHT22;52014;52.088;5.096;2023-06-04T04:54:49;14.10;99.90
65404;DHT22;52014;52.088;5.096;2023-06-04T04:57:15;14.30;99.90
65404;DHT22;52014;52.088;5.096;2023-06-04T04:59:40;14.60;99.90
65404;DHT22;52014;52.088;5.096;2023-06-04T05:02:06;14.80;99.90
65404;DHT22;52014;52.088;5.096;2023-06-04T05:04:31;15.10;99.90
65404;DHT22;52014;52.088;5.096;2023-06-04T05:06:57;15.30;99.90
65404;DHT22;52014;52.088;5.096;2023-06-04T05:09:22;15.40;99.90
65404;DHT22;52014;52.088;5.096;2023-06-04T05:11:47;15.50;99.90
65404;DHT22;52014;52.088;5.096;2023-06-04T05:14:13;15.60;99.90
65404;DHT22;52014;52.088;5.096;2023-06-04T05:16:39;15.80;99.90
65404;DHT22;52014;52.088;5.096;2023-06-04T05:19:06;15.80;99.90
65404;DHT22;52014;52.088;5.096;2023-06-04T05:21:31;16.00;99.90
65404;DHT22;52014;52.088;5.096;2023-06-04T05:23:56;16.20;99.90
65404;DHT22;52014;52.088;5.096;2023-06-04T05:26:22;16.20;99.90
65404;DHT22;52014;52.088;5.096;2023-06-04T05:28:50;16.30;99.90
65404;DHT22;52014;52.088;5.096;2023-06-04T05:31:16;16.40;99.90
65404;DHT22;52014;52.088;5.096;2023-06-04T05:33:43;16.40;99.90
65404;DHT22;52014;52.088;5.096;2023-06-04T05:36:09;16.50;99.90
65404;DHT22;52014;52.088;5.096;2023-06-04T05:38:34;16.60;99.90
65404;DHT22;52014;52.088;5.096;2023-06-04T05:41:01;16.80;99.90
65404;DHT22;52014;52.088;5.096;2023-06-04T05:43:26;17.00;99.90
65404;DHT22;52014;52.088;5.096;2023-06-04T05:45:52;17.10;99.90
65404;DHT22;52014;52.088;5.096;2023-06-04T05:48:17;17.10;99.90
65404;DHT22;52014;52.088;5.096;2023-06-04T05:50:43;17.20;99.90
65404;DHT22;52014;52.088;5.096;2023-06-04T05:53:08;17.30;99.90
65404;DHT22;52014;52.088;5.096;2023-06-04T05:55:33;17.50;99.90
65404;DHT22;52014;52.088;5.096;2023-06-04T05:57:59;17.70;99.90
65404;DHT22;52014;52.088;5.096;2023-06-04T06:00:24;17.80;99.90
65404;DHT22;52014;52.088;5.096;2023-06-04T06:02:50;17.80;99.90
65404;DHT22;52014;52.088;5.096;2023-06-04T06:05:17;17.90;99.90
65404;DHT22;52014;52.088;5.096;2023-06-04T06:07:42;18.10;99.90
65404;DHT22;52014;52.088;5.096;2023-06-04T06:10:08;18.20;99.90
65404;DHT22;52014;52.088;5.096;2023-06-04T06:12:34;18.20;99.90
65404;DHT22;52014;52.088;5.096;2023-06-04T06:14:59;18.30;99.90
65404;DHT22;52014;52.088;5.096;2023-06-04T06:17:25;18.40;99.90
65404;DHT22;52014;52.088;5.096;2023-06-04T06:19:51;18.50;99.90
65404;DHT22;52014;52.088;5.096;2023-06-04T06:22:17;18.60;99.90
65404;DHT22;52014;52.088;5.096;2023-06-04T06:24:42;18.70;99.90
65404;DHT22;52014;52.088;5.096;2023-06-04T06:27:08;18.80;99.90
65404;DHT22;52014;52.088;5.096;2023-06-04T06:29:34;19.10;99.90
65404;DHT22;52014;52.088;5.096;2023-06-04T06:31:59;19.40;99.90
65404;DHT22;52014;52.088;5.096;2023-06-04T06:34:24;20.10;99.90
65404;DHT22;52014;52.088;5.096;2023-06-04T06:36:50;20.20;99.90
65404;DHT22;52014;52.088;5.096;2023-06-04T06:39:15;20.00;99.90
65404;DHT22;52014;52.088;5.096;2023-06-04T06:41:41;20.20;99.90
65404;DHT22;52014;52.088;5.096;2023-06-04T06:44:07;21.50;99.90
65404;DHT22;52014;52.088;5.096;2023-06-04T06:46:32;22.00;99.90
65404;DHT22;52014;52.088;5.096;2023-06-04T06:48:58;22.10;99.90
65404;DHT22;52014;52.088;5.096;2023-06-04T06:51:23;21.50;99.90
65404;DHT22;52014;52.088;5.096;2023-06-04T06:53:49;21.40;99.90
65404;DHT22;52014;52.088;5.096;2023-06-04T06:56:16;21.30;99.90
65404;DHT22;52014;52.088;5.096;2023-06-04T06:58:41;21.40;99.90
65404;DHT22;52014;52.088;5.096;2023-06-04T07:01:07;21.70;99.90
65404;DHT22;52014;52.088;5.096;2023-06-04T07:03:32;21.50;99.90
65404;DHT22;52014;52.088;5.096;2023-06-04T07:05:57;20.80;99.90
65404;DHT22;52014;52.088;5.096;2023-06-04T07:08:23;20.40;99.90
65404;DHT22;52014;52.088;5.096;2023-06-04T07:10:48;20.10;99.90
65404;DHT22;52014;52.088;5.096;2023-06-04T07:13:14;20.20;99.90
65404;DHT22;52014;52.088;5.096;2023-06-04T07:15:40;20.30;99.90
65404;DHT22;52014;52.088;5.096;2023-06-04T07:18:06;20.30;99.90
65404;DHT22;52014;52.088;5.096;2023-06-04T07:20:31;20.10;99.90
65404;DHT22;52014;52.088;5.096;2023-06-04T07:22:56;20.20;99.90
65404;DHT22;52014;52.088;5.096;2023-06-04T07:25:22;20.30;99.90
65404;DHT22;52014;52.088;5.096;2023-06-04T07:27:49;20.40;99.90
65404;DHT22;52014;52.088;5.096;2023-06-04T07:30:16;20.50;99.90
65404;DHT22;52014;52.088;5.096;2023-06-04T07:32:45;20.40;99.90
65404;DHT22;52014;52.088;5.096;2023-06-04T07:35:11;20.50;99.90
65404;DHT22;52014;52.088;5.096;2023-06-04T07:37:36;20.70;99.90
65404;DHT22;52014;52.088;5.096;2023-06-04T07:40:02;20.90;99.90
65404;DHT22;52014;52.088;5.096;2023-06-04T07:42:27;21.00;99.90
65404;DHT22;52014;52.088;5.096;2023-06-04T07:44:53;21.10;99.90
65404;DHT22;52014;52.088;5.096;2023-06-04T07:47:18;21.20;99.90
65404;DHT22;52014;52.088;5.096;2023-06-04T07:49:44;21.20;91.00
65404;DHT22;52014;52.088;5.096;2023-06-04T07:52:09;21.20;51.10
65404;DHT22;52014;52.088;5.096;2023-06-04T07:54:35;21.40;25.80
65404;DHT22;52014;52.088;5.096;2023-06-04T07:57:00;21.40;1.00
65404;DHT22;52014;52.088;5.096;2023-06-04T07:59:26;21.60;1.00
65404;DHT22;52014;52.088;5.096;2023-06-04T08:01:51;21.60;1.00
65404;DHT22;52014;52.088;5.096;2023-06-04T08:04:17;21.60;1.00
65404;DHT22;52014;52.088;5.096;2023-06-04T08:06:43;21.80;1.00
65404;DHT22;52014;52.088;5.096;2023-06-04T08:09:10;21.70;1.00
65404;DHT22;52014;52.088;5.096;2023-06-04T08:11:36;21.80;1.00
65404;DHT22;52014;52.088;5.096;2023-06-04T08:14:02;21.90;1.00
65404;DHT22;52014;52.088;5.096;2023-06-04T08:16:27;22.00;1.00
65404;DHT22;52014;52.088;5.096;2023-06-04T08:18:53;22.00;1.00
65404;DHT22;52014;52.088;5.096;2023-06-04T08:21:25;22.10;1.00
65404;DHT22;52014;52.088;5.096;2023-06-04T08:23:51;22.10;1.00
65404;DHT22;52014;52.088;5.096;2023-06-04T08:26:17;22.00;1.00
65404;DHT22;52014;52.088;5.096;2023-06-04T08:28:42;21.90;1.00
65404;DHT22;52014;52.088;5.096;2023-06-04T08:31:08;22.10;1.00
65404;DHT22;52014;52.088;5.096;2023-06-04T08:33:33;22.10;1.00
65404;DHT22;52014;52.088;5.096;2023-06-04T08:35:59;22.10;1.00
65404;DHT22;52014;52.088;5.096;2023-06-04T08:38:24;22.20;1.00
65404;DHT22;52014;52.088;5.096;2023-06-04T08:40:52;22.20;1.00
65404;DHT22;52014;52.088;5.096;2023-06-04T08:43:18;22.20;1.00
65404;DHT22;52014;52.088;5.096;2023-06-04T08:45:44;22.50;1.00
65404;DHT22;52014;52.088;5.096;2023-06-04T08:48:14;22.70;1.00
65404;DHT22;52014;52.088;5.096;2023-06-04T08:50:41;22.70;99.90
65404;DHT22;52014;52.088;5.096;2023-06-04T08:53:07;22.70;99.90
65404;DHT22;52014;52.088;5.096;2023-06-04T08:55:33;22.50;99.90
65404;DHT22;52014;52.088;5.096;2023-06-04T08:58:00;22.60;99.90
65404;DHT22;52014;52.088;5.096;2023-06-04T09:00:25;22.60;99.90
65404;DHT22;52014;52.088;5.096;2023-06-04T09:02:51;22.80;99.90
65404;DHT22;52014;52.088;5.096;2023-06-04T09:05:20;22.80;99.90
65404;DHT22;52014;52.088;5.096;2023-06-04T09:07:46;22.80;99.90
65404;DHT22;52014;52.088;5.096;2023-06-04T09:10:12;22.90;99.90
65404;DHT22;52014;52.088;5.096;2023-06-04T09:12:42;23.00;99.90
65404;DHT22;52014;52.088;5.096;2023-06-04T09:15:07;23.00;99.90
65404;DHT22;52014;52.088;5.096;2023-06-04T09:17:33;23.20;99.90
65404;DHT22;52014;52.088;5.096;2023-06-04T09:19:58;23.10;99.90
65404;DHT22;52014;52.088;5.096;2023-06-04T09:22:33;23.20;99.90
65404;DHT22;52014;52.088;5.096;2023-06-04T09:24:59;23.40;99.90
65404;DHT22;52014;52.088;5.096;2023-06-04T09:27:25;23.50;99.90
65404;DHT22;52014;52.088;5.096;2023-06-04T09:29:56;23.60;99.90
65404;DHT22;52014;52.088;5.096;2023-06-04T09:32:22;23.60;36.80
65404;DHT22;52014;52.088;5.096;2023-06-04T09:34:47;23.60;1.00
65404;DHT22;52014;52.088;5.096;2023-06-04T09:37:16;23.70;28.70
65404;DHT22;52014;52.088;5.096;2023-06-04T09:39:54;23.50;1.00
65404;DHT22;52014;52.088;5.096;2023-06-04T09:42:20;23.60;1.00
65404;DHT22;52014;52.088;5.096;2023-06-04T09:44:46;23.70;1.00
65404;DHT22;52014;52.088;5.096;2023-06-04T09:47:11;23.90;1.00
65404;DHT22;52014;52.088;5.096;2023-06-04T09:49:40;23.80;99.90
65404;DHT22;52014;52.088;5.096;2023-06-04T09:52:06;23.80;1.00
65404;DHT22;52014;52.088;5.096;2023-06-04T09:54:38;23.90;99.90
65404;DHT22;52014;52.088;5.096;2023-06-04T09:57:05;24.00;1.00
65404;DHT22;52014;52.088;5.096;2023-06-04T09:59:32;23.90;99.90
65404;DHT22;52014;52.088;5.096;2023-06-04T10:02:01;24.00;99.90
65404;DHT22;52014;52.088;5.096;2023-06-04T10:04:27;23.90;99.90
65404;DHT22;52014;52.088;5.096;2023-06-04T10:06:52;24.20;99.90
65404;DHT22;52014;52.088;5.096;2023-06-04T10:09:18;24.20;99.90
65404;DHT22;52014;52.088;5.096;2023-06-04T10:11:56;24.10;99.90
65404;DHT22;52014;52.088;5.096;2023-06-04T10:14:23;23.80;99.90
65404;DHT22;52014;52.088;5.096;2023-06-04T10:16:53;23.80;99.90
65404;DHT22;52014;52.088;5.096;2023-06-04T10:19:19;23.50;99.90
65404;DHT22;52014;52.088;5.096;2023-06-04T10:21:45;23.80;99.90
65404;DHT22;52014;52.088;5.096;2023-06-04T10:24:11;23.90;99.90
65404;DHT22;52014;52.088;5.096;2023-06-04T10:26:37;23.70;99.90
65404;DHT22;52014;52.088;5.096;2023-06-04T10:29:05;24.10;99.90
65404;DHT22;52014;52.088;5.096;2023-06-04T10:31:31;24.10;99.90
65404;DHT22;52014;52.088;5.096;2023-06-04T10:33:57;24.20;99.90
65404;DHT22;52014;52.088;5.096;2023-06-04T10:36:23;23.80;99.90
65404;DHT22;52014;52.088;5.096;2023-06-04T10:38:50;24.00;99.90
65404;DHT22;52014;52.088;5.096;2023-06-04T10:41:16;24.10;99.90
65404;DHT22;52014;52.088;5.096;2023-06-04T10:43:43;24.20;99.90
65404;DHT22;52014;52.088;5.096;2023-06-04T10:46:14;24.20;99.90
65404;DHT22;52014;52.088;5.096;2023-06-04T10:48:49;24.10;99.90
65404;DHT22;52014;52.088;5.096;2023-06-04T10:51:15;24.00;99.90
65404;DHT22;52014;52.088;5.096;2023-06-04T10:53:41;23.90;99.90
65404;DHT22;52014;52.088;5.096;2023-06-04T10:56:06;24.00;99.90
65404;DHT22;52014;52.088;5.096;2023-06-04T10:58:32;24.10;99.90
65404;DHT22;52014;52.088;5.096;2023-06-04T11:00:58;24.00;99.90
65404;DHT22;52014;52.088;5.096;2023-06-04T11:03:23;24.20;99.90
65404;DHT22;52014;52.088;5.096;2023-06-04T11:05:59;23.90;99.90
65404;DHT22;52014;52.088;5.096;2023-06-04T11:08:28;23.90;99.90
65404;DHT22;52014;52.088;5.096;2023-06-04T11:10:54;23.90;99.90
65404;DHT22;52014;52.088;5.096;2023-06-04T11:13:23;23.90;99.90
65404;DHT22;52014;52.088;5.096;2023-06-04T11:15:49;23.90;99.90
65404;DHT22;52014;52.088;5.096;2023-06-04T11:18:16;24.00;99.90
65404;DHT22;52014;52.088;5.096;2023-06-04T11:20:41;23.90;99.90
65404;DHT22;52014;52.088;5.096;2023-06-04T11:23:11;23.90;99.90
65404;DHT22;52014;52.088;5.096;2023-06-04T11:25:36;23.80;99.90
65404;DHT22;52014;52.088;5.096;2023-06-04T11:28:02;23.70;99.90
65404;DHT22;52014;52.088;5.096;2023-06-04T11:30:27;23.60;99.90
65404;DHT22;52014;52.088;5.096;2023-06-04T11:33:00;23.60;99.90
65404;DHT22;52014;52.088;5.096;2023-06-04T11:35:25;23.50;99.90
65404;DHT22;52014;52.088;5.096;2023-06-04T11:37:54;23.60;99.90
65404;DHT22;52014;52.088;5.096;2023-06-04T11:40:20;23.60;99.90
65404;DHT22;52014;52.088;5.096;2023-06-04T11:42:46;23.60;99.90
65404;DHT22;52014;52.088;5.096;2023-06-04T11:45:12;23.50;99.90
65404;DHT22;52014;52.088;5.096;2023-06-04T11:47:38;23.40;99.90
65404;DHT22;52014;52.088;5.096;2023-06-04T11:50:03;23.40;99.90
65404;DHT22;52014;52.088;5.096;2023-06-04T11:52:29;23.20;99.90
65404;DHT22;52014;52.088;5.096;2023-06-04T11:54:55;23.20;99.90
65404;DHT22;52014;52.088;5.096;2023-06-04T11:57:21;23.20;1.00
65404;DHT22;52014;52.088;5.096;2023-06-04T11:59:46;23.20;99.90
65404;DHT22;52014;52.088;5.096;2023-06-04T12:02:12;23.20;99.90
65404;DHT22;52014;52.088;5.096;2023-06-04T12:04:37;23.10;99.90
65404;DHT22;52014;52.088;5.096;2023-06-04T12:07:03;23.00;99.90
65404;DHT22;52014;52.088;5.096;2023-06-04T12:09:33;23.00;99.90
65404;DHT22;52014;52.088;5.096;2023-06-04T12:12:05;22.90;1.00
65404;DHT22;52014;52.088;5.096;2023-06-04T12:14:31;22.90;99.90
65404;DHT22;52014;52.088;5.096;2023-06-04T12:16:57;22.70;99.90
65404;DHT22;52014;52.088;5.096;2023-06-04T12:19:23;22.70;99.90
65404;DHT22;52014;52.088;5.096;2023-06-04T12:22:02;22.70;99.90
65404;DHT22;52014;52.088;5.096;2023-06-04T12:24:27;22.70;99.90
65404;DHT22;52014;52.088;5.096;2023-06-04T12:27:01;22.60;99.90
65404;DHT22;52014;52.088;5.096;2023-06-04T12:29:26;22.50;99.90
65404;DHT22;52014;52.088;5.096;2023-06-04T12:31:52;22.50;99.90
65404;DHT22;52014;52.088;5.096;2023-06-04T12:34:26;22.60;99.90
65404;DHT22;52014;52.088;5.096;2023-06-04T12:36:51;22.60;1.00
65404;DHT22;52014;52.088;5.096;2023-06-04T12:39:17;22.60;99.90
65404;DHT22;52014;52.088;5.096;2023-06-04T12:41:44;22.50;99.90
65404;DHT22;52014;52.088;5.096;2023-06-04T12:44:10;22.40;99.90
65404;DHT22;52014;52.088;5.096;2023-06-04T12:46:35;22.40;99.90
65404;DHT22;52014;52.088;5.096;2023-06-04T12:49:01;22.30;99.90
65404;DHT22;52014;52.088;5.096;2023-06-04T12:51:26;22.30;99.90
65404;DHT22;52014;52.088;5.096;2023-06-04T12:54:12;22.30;99.90
65404;DHT22;52014;52.088;5.096;2023-06-04T12:56:38;22.30;99.90
65404;DHT22;52014;52.088;5.096;2023-06-04T12:59:04;22.20;99.90
65404;DHT22;52014;52.088;5.096;2023-06-04T13:01:29;22.20;99.90
65404;DHT22;52014;52.088;5.096;2023-06-04T13:03:54;22.20;99.90
65404;DHT22;52014;52.088;5.096;2023-06-04T13:06:20;22.20;99.90
65404;DHT22;52014;52.088;5.096;2023-06-04T13:08:46;22.30;99.90
65404;DHT22;52014;52.088;5.096;2023-06-04T13:11:11;22.30;99.90
65404;DHT22;52014;52.088;5.096;2023-06-04T13:13:38;22.30;99.90
65404;DHT22;52014;52.088;5.096;2023-06-04T13:16:04;22.20;99.90
65404;DHT22;52014;52.088;5.096;2023-06-04T13:18:29;22.10;99.90
65404;DHT22;52014;52.088;5.096;2023-06-04T13:20:55;22.10;99.90
65404;DHT22;52014;52.088;5.096;2023-06-04T13:23:21;22.10;99.90
65404;DHT22;52014;52.088;5.096;2023-06-04T13:25:46;22.10;99.90
65404;DHT22;52014;52.088;5.096;2023-06-04T13:28:12;22.00;99.90
65404;DHT22;52014;52.088;5.096;2023-06-04T13:30:37;22.00;99.90
65404;DHT22;52014;52.088;5.096;2023-06-04T13:33:03;22.00;99.90
65404;DHT22;52014;52.088;5.096;2023-06-04T13:35:29;22.00;99.90
65404;DHT22;52014;52.088;5.096;2023-06-04T13:37:55;22.00;99.90
65404;DHT22;52014;52.088;5.096;2023-06-04T13:40:20;22.10;99.90
65404;DHT22;52014;52.088;5.096;2023-06-04T13:42:45;22.10;99.90
65404;DHT22;52014;52.088;5.096;2023-06-04T13:45:11;22.10;99.90
65404;DHT22;52014;52.088;5.096;2023-06-04T13:47:36;22.10;60.50
65404;DHT22;52014;52.088;5.096;2023-06-04T13:50:02;22.10;14.70
65404;DHT22;52014;52.088;5.096;2023-06-04T13:52:28;22.10;1.00
65404;DHT22;52014;52.088;5.096;2023-06-04T13:54:54;22.10;1.00
65404;DHT22;52014;52.088;5.096;2023-06-04T13:57:20;22.00;1.00
65404;DHT22;52014;52.088;5.096;2023-06-04T13:59:45;22.00;1.00
65404;DHT22;52014;52.088;5.096;2023-06-04T14:02:11;22.00;1.00
65404;DHT22;52014;52.088;5.096;2023-06-04T14:04:36;22.00;1.00
65404;DHT22;52014;52.088;5.096;2023-06-04T14:07:01;22.00;1.00
65404;DHT22;52014;52.088;5.096;2023-06-04T14:09:27;22.00;1.00
65404;DHT22;52014;52.088;5.096;2023-06-04T14:11:53;22.10;1.00
65404;DHT22;52014;52.088;5.096;2023-06-04T14:14:20;22.10;1.00
65404;DHT22;52014;52.088;5.096;2023-06-04T14:16:46;22.10;1.00
65404;DHT22;52014;52.088;5.096;2023-06-04T14:19:12;22.00;1.00
65404;DHT22;52014;52.088;5.096;2023-06-04T14:21:38;22.00;1.00
65404;DHT22;52014;52.088;5.096;2023-06-04T14:24:05;22.00;1.00
65404;DHT22;52014;52.088;5.096;2023-06-04T14:26:31;22.10;1.00
65404;DHT22;52014;52.088;5.096;2023-06-04T14:28:56;22.00;1.00
65404;DHT22;52014;52.088;5.096;2023-06-04T14:31:22;22.00;1.00
65404;DHT22;52014;52.088;5.096;2023-06-04T14:33:48;22.00;1.00
65404;DHT22;52014;52.088;5.096;2023-06-04T14:36:13;22.10;1.00
65404;DHT22;52014;52.088;5.096;2023-06-04T14:38:39;22.10;1.00
65404;DHT22;52014;52.088;5.096;2023-06-04T14:41:05;22.00;99.90
65404;DHT22;52014;52.088;5.096;2023-06-04T14:43:30;22.00;1.00
65404;DHT22;52014;52.088;5.096;2023-06-04T14:45:56;22.00;99.90
65404;DHT22;52014;52.088;5.096;2023-06-04T14:48:21;22.10;1.00
65404;DHT22;52014;52.088;5.096;2023-06-04T14:50:47;22.10;1.00
65404;DHT22;52014;52.088;5.096;2023-06-04T14:53:13;22.10;1.00
65404;DHT22;52014;52.088;5.096;2023-06-04T14:55:38;22.10;99.90
65404;DHT22;52014;52.088;5.096;2023-06-04T14:58:04;22.00;1.00
65404;DHT22;52014;52.088;5.096;2023-06-04T15:00:30;22.10;1.00
65404;DHT22;52014;52.088;5.096;2023-06-04T15:02:55;22.00;1.00
65404;DHT22;52014;52.088;5.096;2023-06-04T15:05:21;22.00;1.00
65404;DHT22;52014;52.088;5.096;2023-06-04T15:07:46;22.00;1.00
65404;DHT22;52014;52.088;5.096;2023-06-04T15:10:12;22.00;1.00
65404;DHT22;52014;52.088;5.096;2023-06-04T15:12:37;22.10;1.00
65404;DHT22;52014;52.088;5.096;2023-06-04T15:15:07;22.10;1.00
65404;DHT22;52014;52.088;5.096;2023-06-04T15:17:36;22.00;1.00
65404;DHT22;52014;52.088;5.096;2023-06-04T15:20:02;22.00;1.00
65404;DHT22;52014;52.088;5.096;2023-06-04T15:22:28;22.00;1.00
65404;DHT22;52014;52.088;5.096;2023-06-04T15:24:53;21.90;1.00
65404;DHT22;52014;52.088;5.096;2023-06-04T15:27:19;21.90;1.00
65404;DHT22;52014;52.088;5.096;2023-06-04T15:29:44;22.00;1.00
65404;DHT22;52014;52.088;5.096;2023-06-04T15:32:10;22.00;1.00
65404;DHT22;52014;52.088;5.096;2023-06-04T15:34:35;21.90;1.00
65404;DHT22;52014;52.088;5.096;2023-06-04T15:37:01;21.80;1.00